sensor_id;sensor_type;location;lat;lon;timestamp;P1;durP1;ratioP1;P2;durP2;ratioP2
3922;SDS011;1976;51.694;6.256;2023-05-07T00:00:27;8.37;;;6.50;;
3922;SDS011;1976;51.694;6.256;2023-05-07T00:02:53;9.77;;;7.10;;
3922;SDS011;1976;51.694;6.256;2023-05-07T00:05:19;10.83;;;8.10;;
3922;SDS011;1976;51.694;6.256;2023-05-07T00:07:46;7.10;;;6.13;;
3922;SDS011;1976;51.694;6.256;2023-05-07T00:10:12;7.27;;;6.30;;
3922;SDS011;1976;51.694;6.256;2023-05-07T00:12:38;8.33;;;7.43;;
3922;SDS011;1976;51.694;6.256;2023-05-07T00:15:05;9.47;;;7.57;;
3922;SDS011;1976;51.694;6.256;2023-05-07T00:17:32;13.43;;;7.53;;
3922;SDS011;1976;51.694;6.256;2023-05-07T00:19:58;8.80;;;7.30;;
3922;SDS011;1976;51.694;6.256;2023-05-07T00:22:24;14.20;;;7.47;;
3922;SDS011;1976;51.694;6.256;2023-05-07T00:24:50;11.37;;;7.30;;
3922;SDS011;1976;51.694;6.256;2023-05-07T00:27:16;10.97;;;7.77;;
3922;SDS011;1976;51.694;6.256;2023-05-07T00:29:42;12.60;;;7.30;;
3922;SDS011;1976;51.694;6.256;2023-05-07T00:32:08;10.70;;;7.20;;
3922;SDS011;1976;51.694;6.256;2023-05-07T00:34:34;11.40;;;8.40;;
3922;SDS011;1976;51.694;6.256;2023-05-07T00:37:01;12.93;;;8.70;;
3922;SDS011;1976;51.694;6.256;2023-05-07T00:39:27;11.00;;;7.20;;
3922;SDS011;1976;51.694;6.256;2023-05-07T00:41:52;12.73;;;7.97;;
3922;SDS011;1976;51.694;6.256;2023-05-07T00:44:18;10.10;;;7.33;;
3922;SDS011;1976;51.694;6.256;2023-05-07T00:46:44;11.47;;;8.43;;
3922;SDS011;1976;51.694;6.256;2023-05-07T00:49:13;8.00;;;7.20;;
3922;SDS011;1976;51.694;6.256;2023-05-07T00:51:40;11.27;;;7.53;;
3922;SDS011;1976;51.694;6.256;2023-05-07T00:54:06;9.33;;;7.87;;
3922;SDS011;1976;51.694;6.256;2023-05-07T00:56:32;10.67;;;7.50;;
3922;SDS011;1976;51.694;6.256;2023-05-07T00:58:58;8.83;;;7.03;;
3922;SDS011;1976;51.694;6.256;2023-05-07T01:01:24;7.73;;;6.77;;
3922;SDS011;1976;51.694;6.256;2023-05-07T01:03:51;8.27;;;6.90;;
3922;SDS011;1976;51.694;6.256;2023-05-07T01:06:17;9.03;;;7.20;;
3922;SDS011;1976;51.694;6.256;2023-05-07T01:08:44;9.90;;;6.87;;
3922;SDS011;1976;51.694;6.256;2023-05-07T01:11:10;7.03;;;6.27;;
3922;SDS011;1976;51.694;6.256;2023-05-07T01:13:37;13.77;;;7.07;;
3922;SDS011;1976;51.694;6.256;2023-05-07T01:16:03;11.83;;;7.80;;
3922;SDS011;1976;51.694;6.256;2023-05-07T01:18:30;10.93;;;8.50;;
3922;SDS011;1976;51.694;6.256;2023-05-07T01:20:56;17.33;;;8.57;;
3922;SDS011;1976;51.694;6.256;2023-05-07T01:23:24;11.00;;;7.93;;
3922;SDS011;1976;51.694;6.256;2023-05-07T01:25:54;12.20;;;8.67;;
3922;SDS011;1976;51.694;6.256;2023-05-07T01:28:20;9.97;;;7.90;;
3922;SDS011;1976;51.694;6.256;2023-05-07T01:30:46;11.50;;;8.27;;
3922;SDS011;1976;51.694;6.256;2023-05-07T01:33:14;12.10;;;8.27;;
3922;SDS011;1976;51.694;6.256;2023-05-07T01:35:41;17.43;;;9.27;;
3922;SDS011;1976;51.694;6.256;2023-05-07T01:38:08;15.03;;;9.27;;
3922;SDS011;1976;51.694;6.256;2023-05-07T01:40:34;11.67;;;8.10;;
3922;SDS011;1976;51.694;6.256;2023-05-07T01:43:01;10.93;;;8.80;;
3922;SDS011;1976;51.694;6.256;2023-05-07T01:45:27;14.67;;;9.40;;
3922;SDS011;1976;51.694;6.256;2023-05-07T01:47:58;16.57;;;8.30;;
3922;SDS011;1976;51.694;6.256;2023-05-07T01:50:25;12.73;;;9.20;;
3922;SDS011;1976;51.694;6.256;2023-05-07T01:52:51;10.93;;;8.83;;
3922;SDS011;1976;51.694;6.256;2023-05-07T01:55:17;9.00;;;8.10;;
3922;SDS011;1976;51.694;6.256;2023-05-07T01:57:44;10.47;;;8.10;;
3922;SDS011;1976;51.694;6.256;2023-05-07T02:00:10;12.70;;;8.97;;
3922;SDS011;1976;51.694;6.256;2023-05-07T02:02:36;15.73;;;8.40;;
3922;SDS011;1976;51.694;6.256;2023-05-07T02:05:03;10.30;;;7.80;;
3922;SDS011;1976;51.694;6.256;2023-05-07T02:07:29;12.13;;;9.30;;
3922;SDS011;1976;51.694;6.256;2023-05-07T02:09:55;15.50;;;9.00;;
3922;SDS011;1976;51.694;6.256;2023-05-07T02:12:21;12.30;;;9.53;;
3922;SDS011;1976;51.694;6.256;2023-05-07T02:14:47;11.10;;;9.47;;
3922;SDS011;1976;51.694;6.256;2023-05-07T02:17:13;11.97;;;8.50;;
3922;SDS011;1976;51.694;6.256;2023-05-07T02:19:39;17.83;;;10.03;;
3922;SDS011;1976;51.694;6.256;2023-05-07T02:22:05;12.40;;;9.30;;
3922;SDS011;1976;51.694;6.256;2023-05-07T02:24:31;14.93;;;9.70;;
3922;SDS011;1976;51.694;6.256;2023-05-07T02:26:57;12.63;;;9.20;;
3922;SDS011;1976;51.694;6.256;2023-05-07T02:29:23;14.23;;;9.80;;
3922;SDS011;1976;51.694;6.256;2023-05-07T02:31:49;12.53;;;9.63;;
3922;SDS011;1976;51.694;6.256;2023-05-07T02:34:18;12.57;;;9.67;;
3922;SDS011;1976;51.694;6.256;2023-05-07T02:36:44;16.93;;;8.83;;
3922;SDS011;1976;51.694;6.256;2023-05-07T02:39:11;11.40;;;8.40;;
3922;SDS011;1976;51.694;6.256;2023-05-07T02:41:37;11.47;;;8.40;;
3922;SDS011;1976;51.694;6.256;2023-05-07T02:44:03;10.47;;;8.70;;
3922;SDS011;1976;51.694;6.256;2023-05-07T02:46:29;10.87;;;7.83;;
3922;SDS011;1976;51.694;6.256;2023-05-07T02:48:55;10.17;;;9.07;;
3922;SDS011;1976;51.694;6.256;2023-05-07T02:51:22;10.53;;;9.27;;
3922;SDS011;1976;51.694;6.256;2023-05-07T02:53:48;12.80;;;8.60;;
3922;SDS011;1976;51.694;6.256;2023-05-07T02:56:13;12.30;;;9.00;;
3922;SDS011;1976;51.694;6.256;2023-05-07T02:58:39;12.97;;;9.57;;
3922;SDS011;1976;51.694;6.256;2023-05-07T03:01:07;11.50;;;8.90;;
3922;SDS011;1976;51.694;6.256;2023-05-07T03:03:33;11.90;;;8.90;;
3922;SDS011;1976;51.694;6.256;2023-05-07T03:05:59;13.23;;;9.47;;
3922;SDS011;1976;51.694;6.256;2023-05-07T03:08:25;13.23;;;9.97;;
3922;SDS011;1976;51.694;6.256;2023-05-07T03:10:51;11.23;;;8.97;;
3922;SDS011;1976;51.694;6.256;2023-05-07T03:13:17;13.53;;;10.07;;
3922;SDS011;1976;51.694;6.256;2023-05-07T03:15:43;14.50;;;10.57;;
3922;SDS011;1976;51.694;6.256;2023-05-07T03:18:09;11.70;;;8.37;;
3922;SDS011;1976;51.694;6.256;2023-05-07T03:20:35;12.93;;;9.57;;
3922;SDS011;1976;51.694;6.256;2023-05-07T03:23:01;12.40;;;9.10;;
3922;SDS011;1976;51.694;6.256;2023-05-07T03:25:28;17.53;;;9.37;;
3922;SDS011;1976;51.694;6.256;2023-05-07T03:27:55;12.60;;;9.50;;
3922;SDS011;1976;51.694;6.256;2023-05-07T03:30:21;10.90;;;8.80;;
3922;SDS011;1976;51.694;6.256;2023-05-07T03:32:47;10.93;;;9.80;;
3922;SDS011;1976;51.694;6.256;2023-05-07T03:35:13;16.13;;;10.17;;
3922;SDS011;1976;51.694;6.256;2023-05-07T03:37:39;11.00;;;9.37;;
3922;SDS011;1976;51.694;6.256;2023-05-07T03:40:06;13.77;;;9.90;;
3922;SDS011;1976;51.694;6.256;2023-05-07T03:42:33;13.87;;;10.37;;
3922;SDS011;1976;51.694;6.256;2023-05-07T03:44:58;12.10;;;9.70;;
3922;SDS011;1976;51.694;6.256;2023-05-07T03:47:24;12.60;;;10.23;;
3922;SDS011;1976;51.694;6.256;2023-05-07T03:49:50;15.10;;;10.93;;
3922;SDS011;1976;51.694;6.256;2023-05-07T03:52:17;16.80;;;10.57;;
3922;SDS011;1976;51.694;6.256;2023-05-07T03:54:48;14.07;;;10.10;;
3922;SDS011;1976;51.694;6.256;2023-05-07T03:57:14;16.10;;;11.20;;
3922;SDS011;1976;51.694;6.256;2023-05-07T03:59:40;12.63;;;11.13;;
3922;SDS011;1976;51.694;6.256;2023-05-07T04:02:06;13.57;;;11.10;;
3922;SDS011;1976;51.694;6.256;2023-05-07T04:04:32;15.77;;;11.80;;
3922;SDS011;1976;51.694;6.256;2023-05-07T04:06:58;19.13;;;10.13;;
3922;SDS011;1976;51.694;6.256;2023-05-07T04:09:25;17.33;;;11.70;;
3922;SDS011;1976;51.694;6.256;2023-05-07T04:11:51;13.20;;;10.90;;
3922;SDS011;1976;51.694;6.256;2023-05-07T04:14:17;14.10;;;10.97;;
3922;SDS011;1976;51.694;6.256;2023-05-07T04:16:43;15.70;;;11.30;;
3922;SDS011;1976;51.694;6.256;2023-05-07T04:19:09;12.10;;;10.30;;
3922;SDS011;1976;51.694;6.256;2023-05-07T04:21:35;16.20;;;11.23;;
3922;SDS011;1976;51.694;6.256;2023-05-07T04:24:02;19.60;;;11.53;;
3922;SDS011;1976;51.694;6.256;2023-05-07T04:26:28;12.10;;;10.80;;
3922;SDS011;1976;51.694;6.256;2023-05-07T04:28:55;14.83;;;10.73;;
3922;SDS011;1976;51.694;6.256;2023-05-07T04:31:22;14.10;;;11.27;;
3922;SDS011;1976;51.694;6.256;2023-05-07T04:33:48;13.20;;;11.77;;
3922;SDS011;1976;51.694;6.256;2023-05-07T04:36:15;16.40;;;12.13;;
3922;SDS011;1976;51.694;6.256;2023-05-07T04:38:41;19.10;;;10.50;;
3922;SDS011;1976;51.694;6.256;2023-05-07T04:41:08;13.87;;;11.77;;
3922;SDS011;1976;51.694;6.256;2023-05-07T04:43:34;13.67;;;10.53;;
3922;SDS011;1976;51.694;6.256;2023-05-07T04:46:00;17.57;;;12.30;;
3922;SDS011;1976;51.694;6.256;2023-05-07T04:48:26;15.07;;;11.10;;
3922;SDS011;1976;51.694;6.256;2023-05-07T04:50:53;13.63;;;10.50;;
3922;SDS011;1976;51.694;6.256;2023-05-07T04:53:19;20.67;;;11.97;;
3922;SDS011;1976;51.694;6.256;2023-05-07T04:55:46;16.77;;;11.27;;
3922;SDS011;1976;51.694;6.256;2023-05-07T04:58:12;13.40;;;10.93;;
3922;SDS011;1976;51.694;6.256;2023-05-07T05:00:38;23.63;;;13.27;;
3922;SDS011;1976;51.694;6.256;2023-05-07T05:03:04;20.90;;;12.57;;
3922;SDS011;1976;51.694;6.256;2023-05-07T05:05:30;16.73;;;12.73;;
3922;SDS011;1976;51.694;6.256;2023-05-07T05:07:56;16.77;;;12.10;;
3922;SDS011;1976;51.694;6.256;2023-05-07T05:10:22;14.90;;;12.23;;
3922;SDS011;1976;51.694;6.256;2023-05-07T05:12:48;11.60;;;10.23;;
3922;SDS011;1976;51.694;6.256;2023-05-07T05:15:14;13.90;;;11.57;;
3922;SDS011;1976;51.694;6.256;2023-05-07T05:17:40;24.13;;;12.07;;
3922;SDS011;1976;51.694;6.256;2023-05-07T05:20:06;15.73;;;12.20;;
3922;SDS011;1976;51.694;6.256;2023-05-07T05:22:32;18.93;;;11.67;;
3922;SDS011;1976;51.694;6.256;2023-05-07T05:24:58;15.30;;;11.53;;
3922;SDS011;1976;51.694;6.256;2023-05-07T05:27:25;17.50;;;10.50;;
3922;SDS011;1976;51.694;6.256;2023-05-07T05:29:51;14.00;;;11.80;;
3922;SDS011;1976;51.694;6.256;2023-05-07T05:32:17;14.73;;;10.67;;
3922;SDS011;1976;51.694;6.256;2023-05-07T05:34:43;15.67;;;11.17;;
3922;SDS011;1976;51.694;6.256;2023-05-07T05:37:09;18.73;;;10.90;;
3922;SDS011;1976;51.694;6.256;2023-05-07T05:39:34;13.60;;;12.13;;
3922;SDS011;1976;51.694;6.256;2023-05-07T05:42:00;14.27;;;10.50;;
3922;SDS011;1976;51.694;6.256;2023-05-07T05:44:26;13.10;;;10.30;;
3922;SDS011;1976;51.694;6.256;2023-05-07T05:46:52;18.10;;;11.60;;
3922;SDS011;1976;51.694;6.256;2023-05-07T05:49:24;14.67;;;10.80;;
3922;SDS011;1976;51.694;6.256;2023-05-07T05:51:50;14.97;;;10.90;;
3922;SDS011;1976;51.694;6.256;2023-05-07T05:54:15;13.90;;;10.10;;
3922;SDS011;1976;51.694;6.256;2023-05-07T05:56:42;11.70;;;9.53;;
3922;SDS011;1976;51.694;6.256;2023-05-07T05:59:11;13.40;;;9.80;;
3922;SDS011;1976;51.694;6.256;2023-05-07T06:01:37;19.30;;;10.20;;
3922;SDS011;1976;51.694;6.256;2023-05-07T06:04:04;13.93;;;10.53;;
3922;SDS011;1976;51.694;6.256;2023-05-07T06:06:30;17.60;;;11.30;;
3922;SDS011;1976;51.694;6.256;2023-05-07T06:08:56;12.13;;;10.60;;
3922;SDS011;1976;51.694;6.256;2023-05-07T06:11:22;15.17;;;9.83;;
3922;SDS011;1976;51.694;6.256;2023-05-07T06:13:48;18.30;;;9.90;;
3922;SDS011;1976;51.694;6.256;2023-05-07T06:16:14;13.47;;;9.63;;
3922;SDS011;1976;51.694;6.256;2023-05-07T06:18:40;13.33;;;9.20;;
3922;SDS011;1976;51.694;6.256;2023-05-07T06:21:05;11.47;;;9.07;;
3922;SDS011;1976;51.694;6.256;2023-05-07T06:23:31;18.07;;;10.40;;
3922;SDS011;1976;51.694;6.256;2023-05-07T06:25:57;16.40;;;9.80;;
3922;SDS011;1976;51.694;6.256;2023-05-07T06:28:23;12.93;;;9.40;;
3922;SDS011;1976;51.694;6.256;2023-05-07T06:30:49;13.30;;;9.80;;
3922;SDS011;1976;51.694;6.256;2023-05-07T06:33:16;14.53;;;10.27;;
3922;SDS011;1976;51.694;6.256;2023-05-07T06:35:42;12.13;;;9.23;;
3922;SDS011;1976;51.694;6.256;2023-05-07T06:38:07;14.60;;;9.37;;
3922;SDS011;1976;51.694;6.256;2023-05-07T06:40:33;10.23;;;8.70;;
3922;SDS011;1976;51.694;6.256;2023-05-07T06:42:59;18.13;;;9.23;;
3922;SDS011;1976;51.694;6.256;2023-05-07T06:45:26;11.17;;;10.00;;
3922;SDS011;1976;51.694;6.256;2023-05-07T06:47:52;12.20;;;9.00;;
3922;SDS011;1976;51.694;6.256;2023-05-07T06:50:18;10.23;;;9.13;;
3922;SDS011;1976;51.694;6.256;2023-05-07T06:52:44;14.03;;;8.40;;
3922;SDS011;1976;51.694;6.256;2023-05-07T06:55:10;14.70;;;9.43;;
3922;SDS011;1976;51.694;6.256;2023-05-07T06:57:36;10.43;;;8.70;;
3922;SDS011;1976;51.694;6.256;2023-05-07T07:00:02;10.20;;;8.70;;
3922;SDS011;1976;51.694;6.256;2023-05-07T07:02:29;16.00;;;10.87;;
3922;SDS011;1976;51.694;6.256;2023-05-07T07:04:55;14.50;;;9.40;;
3922;SDS011;1976;51.694;6.256;2023-05-07T07:07:20;18.40;;;9.07;;
3922;SDS011;1976;51.694;6.256;2023-05-07T07:09:46;12.57;;;9.10;;
3922;SDS011;1976;51.694;6.256;2023-05-07T07:12:12;12.00;;;8.60;;
3922;SDS011;1976;51.694;6.256;2023-05-07T07:14:38;11.27;;;8.03;;
3922;SDS011;1976;51.694;6.256;2023-05-07T07:17:04;16.87;;;7.93;;
3922;SDS011;1976;51.694;6.256;2023-05-07T07:19:30;10.33;;;7.90;;
3922;SDS011;1976;51.694;6.256;2023-05-07T07:21:56;12.17;;;7.10;;
3922;SDS011;1976;51.694;6.256;2023-05-07T07:24:22;11.90;;;7.73;;
3922;SDS011;1976;51.694;6.256;2023-05-07T07:26:48;14.30;;;7.37;;
3922;SDS011;1976;51.694;6.256;2023-05-07T07:29:14;8.53;;;7.30;;
3922;SDS011;1976;51.694;6.256;2023-05-07T07:31:40;8.70;;;7.43;;
3922;SDS011;1976;51.694;6.256;2023-05-07T07:34:05;9.77;;;7.33;;
3922;SDS011;1976;51.694;6.256;2023-05-07T07:36:31;12.43;;;7.10;;
3922;SDS011;1976;51.694;6.256;2023-05-07T07:38:56;7.17;;;6.47;;
3922;SDS011;1976;51.694;6.256;2023-05-07T07:41:22;8.70;;;6.50;;
3922;SDS011;1976;51.694;6.256;2023-05-07T07:43:48;7.30;;;6.47;;
3922;SDS011;1976;51.694;6.256;2023-05-07T07:46:13;14.40;;;7.67;;
3922;SDS011;1976;51.694;6.256;2023-05-07T07:48:39;10.80;;;6.40;;
3922;SDS011;1976;51.694;6.256;2023-05-07T07:51:05;11.67;;;6.37;;
3922;SDS011;1976;51.694;6.256;2023-05-07T07:53:31;6.80;;;5.87;;
3922;SDS011;1976;51.694;6.256;2023-05-07T07:55:57;9.57;;;6.17;;
3922;SDS011;1976;51.694;6.256;2023-05-07T07:58:23;16.17;;;6.50;;
3922;SDS011;1976;51.694;6.256;2023-05-07T08:00:49;8.50;;;6.03;;
3922;SDS011;1976;51.694;6.256;2023-05-07T08:03:16;9.93;;;5.63;;
3922;SDS011;1976;51.694;6.256;2023-05-07T08:05:42;15.90;;;5.80;;
3922;SDS011;1976;51.694;6.256;2023-05-07T08:08:08;8.03;;;5.70;;
3922;SDS011;1976;51.694;6.256;2023-05-07T08:10:34;9.33;;;5.87;;
3922;SDS011;1976;51.694;6.256;2023-05-07T08:13:03;7.63;;;5.30;;
3922;SDS011;1976;51.694;6.256;2023-05-07T08:15:29;6.13;;;5.53;;
3922;SDS011;1976;51.694;6.256;2023-05-07T08:17:55;10.90;;;6.23;;
3922;SDS011;1976;51.694;6.256;2023-05-07T08:20:22;10.53;;;5.63;;
3922;SDS011;1976;51.694;6.256;2023-05-07T08:22:48;10.90;;;6.00;;
3922;SDS011;1976;51.694;6.256;2023-05-07T08:25:14;6.93;;;5.63;;
3922;SDS011;1976;51.694;6.256;2023-05-07T08:27:40;7.37;;;5.33;;
3922;SDS011;1976;51.694;6.256;2023-05-07T08:30:05;6.07;;;4.53;;
3922;SDS011;1976;51.694;6.256;2023-05-07T08:32:32;9.23;;;5.37;;
3922;SDS011;1976;51.694;6.256;2023-05-07T08:34:57;8.23;;;5.20;;
3922;SDS011;1976;51.694;6.256;2023-05-07T08:37:23;6.43;;;5.40;;
3922;SDS011;1976;51.694;6.256;2023-05-07T08:39:49;8.80;;;4.97;;
3922;SDS011;1976;51.694;6.256;2023-05-07T08:42:15;7.67;;;4.80;;
3922;SDS011;1976;51.694;6.256;2023-05-07T08:44:42;5.53;;;4.97;;
3922;SDS011;1976;51.694;6.256;2023-05-07T08:47:13;8.80;;;4.50;;
3922;SDS011;1976;51.694;6.256;2023-05-07T08:49:39;5.33;;;4.83;;
3922;SDS011;1976;51.694;6.256;2023-05-07T08:52:05;5.93;;;4.53;;
3922;SDS011;1976;51.694;6.256;2023-05-07T08:54:31;7.23;;;4.90;;
3922;SDS011;1976;51.694;6.256;2023-05-07T08:56:57;5.40;;;4.63;;
3922;SDS011;1976;51.694;6.256;2023-05-07T08:59:23;7.20;;;4.43;;
3922;SDS011;1976;51.694;6.256;2023-05-07T09:01:48;5.60;;;4.40;;
3922;SDS011;1976;51.694;6.256;2023-05-07T09:04:14;8.67;;;4.07;;
3922;SDS011;1976;51.694;6.256;2023-05-07T09:06:40;4.23;;;3.80;;
3922;SDS011;1976;51.694;6.256;2023-05-07T09:09:07;5.73;;;4.40;;
3922;SDS011;1976;51.694;6.256;2023-05-07T09:11:32;6.80;;;4.13;;
3922;SDS011;1976;51.694;6.256;2023-05-07T09:13:58;6.40;;;4.67;;
3922;SDS011;1976;51.694;6.256;2023-05-07T09:16:28;12.60;;;4.53;;
3922;SDS011;1976;51.694;6.256;2023-05-07T09:18:56;6.37;;;3.67;;
3922;SDS011;1976;51.694;6.256;2023-05-07T09:21:23;4.93;;;4.13;;
3922;SDS011;1976;51.694;6.256;2023-05-07T09:23:50;15.83;;;4.80;;
3922;SDS011;1976;51.694;6.256;2023-05-07T09:26:16;5.67;;;3.90;;
3922;SDS011;1976;51.694;6.256;2023-05-07T09:28:43;3.40;;;3.10;;
3922;SDS011;1976;51.694;6.256;2023-05-07T09:31:09;6.23;;;4.30;;
3922;SDS011;1976;51.694;6.256;2023-05-07T09:33:36;4.23;;;3.60;;
3922;SDS011;1976;51.694;6.256;2023-05-07T09:36:05;4.37;;;3.10;;
3922;SDS011;1976;51.694;6.256;2023-05-07T09:38:32;5.73;;;4.10;;
3922;SDS011;1976;51.694;6.256;2023-05-07T09:41:06;5.13;;;3.70;;
3922;SDS011;1976;51.694;6.256;2023-05-07T09:43:35;5.90;;;4.10;;
3922;SDS011;1976;51.694;6.256;2023-05-07T09:46:02;5.70;;;3.43;;
3922;SDS011;1976;51.694;6.256;2023-05-07T09:48:30;4.03;;;3.60;;
3922;SDS011;1976;51.694;6.256;2023-05-07T09:50:57;4.13;;;3.70;;
3922;SDS011;1976;51.694;6.256;2023-05-07T09:53:27;5.20;;;3.80;;
3922;SDS011;1976;51.694;6.256;2023-05-07T09:55:54;3.07;;;2.57;;
3922;SDS011;1976;51.694;6.256;2023-05-07T09:58:22;5.20;;;3.00;;
3922;SDS011;1976;51.694;6.256;2023-05-07T10:00:49;4.07;;;3.07;;
3922;SDS011;1976;51.694;6.256;2023-05-07T10:03:15;3.63;;;3.10;;
3922;SDS011;1976;51.694;6.256;2023-05-07T10:05:43;4.47;;;3.20;;
3922;SDS011;1976;51.694;6.256;2023-05-07T10:08:09;5.40;;;2.97;;
3922;SDS011;1976;51.694;6.256;2023-05-07T10:10:36;6.00;;;2.70;;
3922;SDS011;1976;51.694;6.256;2023-05-07T10:13:02;3.40;;;3.10;;
3922;SDS011;1976;51.694;6.256;2023-05-07T10:15:35;2.97;;;2.60;;
3922;SDS011;1976;51.694;6.256;2023-05-07T10:18:01;3.70;;;3.10;;
3922;SDS011;1976;51.694;6.256;2023-05-07T10:20:28;5.20;;;2.90;;
3922;SDS011;1976;51.694;6.256;2023-05-07T10:22:54;8.20;;;2.80;;
3922;SDS011;1976;51.694;6.256;2023-05-07T10:25:26;3.93;;;3.17;;
3922;SDS011;1976;51.694;6.256;2023-05-07T10:27:55;2.93;;;2.63;;
3922;SDS011;1976;51.694;6.256;2023-05-07T10:33:19;2.20;;;2.00;;
3922;SDS011;1976;51.694;6.256;2023-05-07T10:35:51;3.70;;;2.00;;
3922;SDS011;1976;51.694;6.256;2023-05-07T10:38:20;7.50;;;1.63;;
3922;SDS011;1976;51.694;6.256;2023-05-07T10:40:46;3.97;;;1.67;;
3922;SDS011;1976;51.694;6.256;2023-05-07T10:43:12;2.00;;;1.83;;
3922;SDS011;1976;51.694;6.256;2023-05-07T10:45:38;2.30;;;1.50;;
3922;SDS011;1976;51.694;6.256;2023-05-07T10:50:30;1.83;;;1.67;;
3922;SDS011;1976;51.694;6.256;2023-05-07T10:55:41;2.53;;;2.13;;
3922;SDS011;1976;51.694;6.256;2023-05-07T10:58:26;2.07;;;1.60;;
3922;SDS011;1976;51.694;6.256;2023-05-07T11:00:59;1.70;;;1.60;;
3922;SDS011;1976;51.694;6.256;2023-05-07T11:03:25;1.67;;;1.50;;
3922;SDS011;1976;51.694;6.256;2023-05-07T11:12:05;2.10;;;1.47;;
3922;SDS011;1976;51.694;6.256;2023-05-07T11:14:07;2.30;;;1.47;;
3922;SDS011;1976;51.694;6.256;2023-05-07T11:16:33;2.20;;;1.43;;
3922;SDS011;1976;51.694;6.256;2023-05-07T11:19:01;2.53;;;1.17;;
3922;SDS011;1976;51.694;6.256;2023-05-07T11:24:03;1.93;;;1.50;;
3922;SDS011;1976;51.694;6.256;2023-05-07T11:26:30;1.83;;;1.53;;
3922;SDS011;1976;51.694;6.256;2023-05-07T11:28:56;2.60;;;1.70;;
3922;SDS011;1976;51.694;6.256;2023-05-07T11:31:25;2.93;;;1.60;;
3922;SDS011;1976;51.694;6.256;2023-05-07T11:33:53;2.40;;;1.80;;
3922;SDS011;1976;51.694;6.256;2023-05-07T11:36:20;4.80;;;2.23;;
3922;SDS011;1976;51.694;6.256;2023-05-07T11:38:46;2.13;;;1.67;;
3922;SDS011;1976;51.694;6.256;2023-05-07T11:41:12;2.20;;;1.60;;
3922;SDS011;1976;51.694;6.256;2023-05-07T11:43:52;8.37;;;2.30;;
3922;SDS011;1976;51.694;6.256;2023-05-07T11:46:19;1.60;;;1.50;;
3922;SDS011;1976;51.694;6.256;2023-05-07T11:48:45;1.63;;;1.53;;
3922;SDS011;1976;51.694;6.256;2023-05-07T11:51:11;6.23;;;1.80;;
3922;SDS011;1976;51.694;6.256;2023-05-07T11:53:43;2.07;;;1.60;;
3922;SDS011;1976;51.694;6.256;2023-05-07T11:56:13;2.13;;;1.50;;
3922;SDS011;1976;51.694;6.256;2023-05-07T11:58:41;2.10;;;1.40;;
3922;SDS011;1976;51.694;6.256;2023-05-07T12:01:07;1.93;;;1.40;;
3922;SDS011;1976;51.694;6.256;2023-05-07T12:03:37;2.47;;;1.40;;
3922;SDS011;1976;51.694;6.256;2023-05-07T12:06:05;2.63;;;1.77;;
3922;SDS011;1976;51.694;6.256;2023-05-07T12:08:31;3.93;;;2.20;;
3922;SDS011;1976;51.694;6.256;2023-05-07T12:10:57;3.00;;;1.80;;
3922;SDS011;1976;51.694;6.256;2023-05-07T12:13:24;3.80;;;1.73;;
3922;SDS011;1976;51.694;6.256;2023-05-07T12:15:55;2.80;;;1.53;;
3922;SDS011;1976;51.694;6.256;2023-05-07T12:18:22;3.73;;;1.47;;
3922;SDS011;1976;51.694;6.256;2023-05-07T12:20:48;1.73;;;1.53;;
3922;SDS011;1976;51.694;6.256;2023-05-07T12:23:15;1.67;;;1.33;;
3922;SDS011;1976;51.694;6.256;2023-05-07T12:25:41;3.03;;;1.60;;
3922;SDS011;1976;51.694;6.256;2023-05-07T12:28:15;3.53;;;1.70;;
3922;SDS011;1976;51.694;6.256;2023-05-07T12:30:45;4.80;;;2.00;;
3922;SDS011;1976;51.694;6.256;2023-05-07T12:33:14;1.57;;;1.47;;
3922;SDS011;1976;51.694;6.256;2023-05-07T12:35:42;7.90;;;2.17;;
3922;SDS011;1976;51.694;6.256;2023-05-07T12:38:12;2.97;;;2.00;;
3922;SDS011;1976;51.694;6.256;2023-05-07T12:40:42;5.57;;;2.50;;
3922;SDS011;1976;51.694;6.256;2023-05-07T12:43:15;4.43;;;3.27;;
3922;SDS011;1976;51.694;6.256;2023-05-07T12:45:48;6.70;;;2.97;;
3922;SDS011;1976;51.694;6.256;2023-05-07T12:48:15;5.10;;;3.90;;
3922;SDS011;1976;51.694;6.256;2023-05-07T12:50:41;6.77;;;3.50;;
3922;SDS011;1976;51.694;6.256;2023-05-07T12:53:08;4.60;;;4.10;;
3922;SDS011;1976;51.694;6.256;2023-05-07T12:55:46;6.00;;;4.17;;
3922;SDS011;1976;51.694;6.256;2023-05-07T12:58:19;5.83;;;4.30;;
3922;SDS011;1976;51.694;6.256;2023-05-07T13:00:47;4.63;;;4.10;;
3922;SDS011;1976;51.694;6.256;2023-05-07T13:03:27;6.10;;;4.00;;
3922;SDS011;1976;51.694;6.256;2023-05-07T13:05:55;7.73;;;3.60;;
3922;SDS011;1976;51.694;6.256;2023-05-07T13:08:31;4.40;;;3.27;;
3922;SDS011;1976;51.694;6.256;2023-05-07T13:10:57;7.53;;;4.43;;
3922;SDS011;1976;51.694;6.256;2023-05-07T13:13:23;9.37;;;4.90;;
3922;SDS011;1976;51.694;6.256;2023-05-07T13:15:50;5.80;;;4.23;;
3922;SDS011;1976;51.694;6.256;2023-05-07T13:18:15;12.70;;;4.07;;
3922;SDS011;1976;51.694;6.256;2023-05-07T13:20:41;8.00;;;4.77;;
3922;SDS011;1976;51.694;6.256;2023-05-07T13:23:07;7.30;;;4.50;;
3922;SDS011;1976;51.694;6.256;2023-05-07T13:25:33;8.23;;;4.87;;
3922;SDS011;1976;51.694;6.256;2023-05-07T13:27:59;4.80;;;4.20;;
3922;SDS011;1976;51.694;6.256;2023-05-07T13:30:25;4.70;;;3.80;;
3922;SDS011;1976;51.694;6.256;2023-05-07T13:32:55;11.20;;;4.00;;
3922;SDS011;1976;51.694;6.256;2023-05-07T13:35:21;7.63;;;3.83;;
3922;SDS011;1976;51.694;6.256;2023-05-07T13:37:47;37.07;;;5.60;;
3922;SDS011;1976;51.694;6.256;2023-05-07T13:40:14;72.43;;;7.67;;
3922;SDS011;1976;51.694;6.256;2023-05-07T13:42:40;9.13;;;4.70;;
3922;SDS011;1976;51.694;6.256;2023-05-07T13:45:07;8.70;;;4.70;;
3922;SDS011;1976;51.694;6.256;2023-05-07T13:47:34;8.07;;;4.77;;
3922;SDS011;1976;51.694;6.256;2023-05-07T13:50:00;6.73;;;4.33;;
3922;SDS011;1976;51.694;6.256;2023-05-07T13:52:26;8.70;;;4.60;;
3922;SDS011;1976;51.694;6.256;2023-05-07T13:54:52;9.90;;;4.10;;
3922;SDS011;1976;51.694;6.256;2023-05-07T13:57:18;5.20;;;4.50;;
3922;SDS011;1976;51.694;6.256;2023-05-07T13:59:44;8.87;;;5.13;;
3922;SDS011;1976;51.694;6.256;2023-05-07T14:02:10;19.13;;;3.90;;
3922;SDS011;1976;51.694;6.256;2023-05-07T14:04:37;10.60;;;4.47;;
3922;SDS011;1976;51.694;6.256;2023-05-07T14:07:02;10.93;;;4.27;;
3922;SDS011;1976;51.694;6.256;2023-05-07T14:09:28;7.57;;;5.13;;
3922;SDS011;1976;51.694;6.256;2023-05-07T14:11:54;17.20;;;5.87;;
3922;SDS011;1976;51.694;6.256;2023-05-07T14:14:20;11.17;;;7.03;;
3922;SDS011;1976;51.694;6.256;2023-05-07T14:16:46;14.00;;;6.70;;
3922;SDS011;1976;51.694;6.256;2023-05-07T14:19:12;9.83;;;5.50;;
3922;SDS011;1976;51.694;6.256;2023-05-07T14:21:38;9.03;;;5.80;;
3922;SDS011;1976;51.694;6.256;2023-05-07T14:24:06;14.57;;;6.53;;
3922;SDS011;1976;51.694;6.256;2023-05-07T14:26:32;18.13;;;7.70;;
3922;SDS011;1976;51.694;6.256;2023-05-07T14:28:58;16.40;;;6.47;;
3922;SDS011;1976;51.694;6.256;2023-05-07T14:31:24;6.03;;;4.93;;
3922;SDS011;1976;51.694;6.256;2023-05-07T14:33:51;9.70;;;5.60;;
3922;SDS011;1976;51.694;6.256;2023-05-07T14:36:17;8.63;;;4.77;;
3922;SDS011;1976;51.694;6.256;2023-05-07T14:38:46;13.50;;;5.90;;
3922;SDS011;1976;51.694;6.256;2023-05-07T14:41:12;7.57;;;5.30;;
3922;SDS011;1976;51.694;6.256;2023-05-07T14:43:37;9.50;;;5.43;;
3922;SDS011;1976;51.694;6.256;2023-05-07T14:46:03;8.93;;;6.20;;
3922;SDS011;1976;51.694;6.256;2023-05-07T14:48:29;12.53;;;5.50;;
3922;SDS011;1976;51.694;6.256;2023-05-07T14:50:55;12.73;;;5.97;;
3922;SDS011;1976;51.694;6.256;2023-05-07T14:53:21;9.97;;;5.80;;
3922;SDS011;1976;51.694;6.256;2023-05-07T14:55:48;7.03;;;5.87;;
3922;SDS011;1976;51.694;6.256;2023-05-07T14:58:13;8.63;;;6.67;;
3922;SDS011;1976;51.694;6.256;2023-05-07T15:00:40;8.23;;;2.90;;
3922;SDS011;1976;51.694;6.256;2023-05-07T15:03:06;4.77;;;2.53;;
3922;SDS011;1976;51.694;6.256;2023-05-07T15:05:34;5.10;;;2.13;;
3922;SDS011;1976;51.694;6.256;2023-05-07T15:08:00;5.40;;;3.07;;
3922;SDS011;1976;51.694;6.256;2023-05-07T15:10:26;1.77;;;1.67;;
3922;SDS011;1976;51.694;6.256;2023-05-07T15:12:52;3.30;;;2.30;;
3922;SDS011;1976;51.694;6.256;2023-05-07T15:15:18;5.13;;;3.40;;
3922;SDS011;1976;51.694;6.256;2023-05-07T15:17:44;3.70;;;3.40;;